sensor_id;sensor_type;location;lat;lon;timestamp;pressure;altitude;pressure_sealevel;temperature;humidity
50977;BME280;36992;48.200;12.418;2023-11-19T00:00:46;96848.69;;;8.83;56.59
50977;BME280;36992;48.200;12.418;2023-11-19T00:03:12;96847.06;;;8.82;56.64
50977;BME280;36992;48.200;12.418;2023-11-19T00:05:39;96842.00;;;8.80;56.62
50977;BME280;36992;48.200;12.418;2023-11-19T00:08:07;96828.56;;;8.80;56.83
50977;BME280;36992;48.200;12.418;2023-11-19T00:10:34;96832.34;;;8.79;56.99
50977;BME280;36992;48.200;12.418;2023-11-19T00:13:00;96830.44;;;8.80;56.79
50977;BME280;36992;48.200;12.418;2023-11-19T00:15:28;96835.81;;;8.80;56.98
50977;BME280;36992;48.200;12.418;2023-11-19T00:17:54;96840.09;;;8.81;56.91
50977;BME280;36992;48.200;12.418;2023-11-19T00:20:21;96840.09;;;8.81;56.73
50977;BME280;36992;48.200;12.418;2023-11-19T00:22:48;96838.75;;;8.83;56.81
50977;BME280;36992;48.200;12.418;2023-11-19T00:25:17;96845.44;;;8.86;56.85
50977;BME280;36992;48.200;12.418;2023-11-19T00:27:44;96842.75;;;8.86;57.04
50977;BME280;36992;48.200;12.418;2023-11-19T00:30:10;96840.59;;;8.88;56.79
50977;BME280;36992;48.200;12.418;2023-11-19T00:32:37;96836.84;;;8.89;56.91
50977;BME280;36992;48.200;12.418;2023-11-19T00:35:05;96829.56;;;8.89;56.86
50977;BME280;36992;48.200;12.418;2023-11-19T00:37:32;96821.25;;;8.91;56.81
50977;BME280;36992;48.200;12.418;2023-11-19T00:39:59;96825.81;;;8.90;57.07
50977;BME280;36992;48.200;12.418;2023-11-19T00:42:27;96824.44;;;8.93;56.69
50977;BME280;36992;48.200;12.418;2023-11-19T00:44:53;96815.88;;;8.91;56.93
50977;BME280;36992;48.200;12.418;2023-11-19T00:47:20;96816.13;;;8.89;56.82
50977;BME280;36992;48.200;12.418;2023-11-19T00:49:47;96798.16;;;8.90;56.97
50977;BME280;36992;48.200;12.418;2023-11-19T00:52:15;96805.41;;;8.89;57.06
50977;BME280;36992;48.200;12.418;2023-11-19T00:54:41;96794.91;;;8.88;56.95
50977;BME280;36992;48.200;12.418;2023-11-19T00:57:08;96802.19;;;8.87;57.00
50977;BME280;36992;48.200;12.418;2023-11-19T00:59:36;96808.91;;;8.90;56.96
50977;BME280;36992;48.200;12.418;2023-11-19T01:02:03;96800.59;;;8.86;57.13
50977;BME280;36992;48.200;12.418;2023-11-19T01:04:33;96806.22;;;8.90;56.99
50977;BME280;36992;48.200;12.418;2023-11-19T01:06:59;96807.84;;;8.86;57.24
50977;BME280;36992;48.200;12.418;2023-11-19T01:09:29;96814.28;;;8.85;57.14
50977;BME280;36992;48.200;12.418;2023-11-19T01:11:57;96805.41;;;8.84;57.37
50977;BME280;36992;48.200;12.418;2023-11-19T01:14:23;96798.19;;;8.85;57.01
50977;BME280;36992;48.200;12.418;2023-11-19T01:16:51;96790.63;;;8.87;56.93
50977;BME280;36992;48.200;12.418;2023-11-19T01:19:19;96789.03;;;8.86;57.20
50977;BME280;36992;48.200;12.418;2023-11-19T01:21:46;96789.03;;;8.86;57.26
50977;BME280;36992;48.200;12.418;2023-11-19T01:24:13;96785.25;;;8.87;57.65
50977;BME280;36992;48.200;12.418;2023-11-19T01:26:39;96779.88;;;8.87;57.08
50977;BME280;36992;48.200;12.418;2023-11-19T01:29:10;96779.88;;;8.87;57.18
50977;BME280;36992;48.200;12.418;2023-11-19T01:31:38;96766.44;;;8.87;57.28
50977;BME280;36992;48.200;12.418;2023-11-19T01:34:06;96767.00;;;8.89;57.22
50977;BME280;36992;48.200;12.418;2023-11-19T01:36:33;96767.78;;;8.89;57.27
50977;BME280;36992;48.200;12.418;2023-11-19T01:38:59;96760.53;;;8.90;57.33
50977;BME280;36992;48.200;12.418;2023-11-19T01:41:26;96757.84;;;8.90;57.22
50977;BME280;36992;48.200;12.418;2023-11-19T01:43:53;96747.09;;;8.90;57.35
50977;BME280;36992;48.200;12.418;2023-11-19T01:46:19;96744.16;;;8.92;57.13
50977;BME280;36992;48.200;12.418;2023-11-19T01:48:46;96733.66;;;8.90;57.20
50977;BME280;36992;48.200;12.418;2023-11-19T01:51:16;96735.78;;;8.93;57.26
50977;BME280;36992;48.200;12.418;2023-11-19T01:53:43;96727.22;;;8.91;57.13
50977;BME280;36992;48.200;12.418;2023-11-19T01:56:13;96720.75;;;8.92;57.37
50977;BME280;36992;48.200;12.418;2023-11-19T01:58:40;96726.69;;;8.89;57.32
50977;BME280;36992;48.200;12.418;2023-11-19T02:01:08;96715.94;;;8.89;57.28
50977;BME280;36992;48.200;12.418;2023-11-19T02:03:36;96715.94;;;8.89;57.42
50977;BME280;36992;48.200;12.418;2023-11-19T02:06:04;96723.47;;;8.87;57.55
50977;BME280;36992;48.200;12.418;2023-11-19T02:08:32;96717.00;;;8.88;57.26
50977;BME280;36992;48.200;12.418;2023-11-19T02:10:59;96703.06;;;8.86;57.26
50977;BME280;36992;48.200;12.418;2023-11-19T02:13:26;96713.81;;;8.86;57.50
50977;BME280;36992;48.200;12.418;2023-11-19T02:15:54;96715.41;;;8.87;57.36
50977;BME280;36992;48.200;12.418;2023-11-19T02:18:22;96703.06;;;8.86;57.33
50977;BME280;36992;48.200;12.418;2023-11-19T02:20:49;96697.69;;;8.86;57.50
50977;BME280;36992;48.200;12.418;2023-11-19T02:23:16;96695.28;;;8.84;57.68
50977;BME280;36992;48.200;12.418;2023-11-19T02:25:47;96707.09;;;8.88;57.38
50977;BME280;36992;48.200;12.418;2023-11-19T02:28:16;96710.03;;;8.87;57.42
50977;BME280;36992;48.200;12.418;2023-11-19T02:30:43;96700.38;;;8.86;57.79
50977;BME280;36992;48.200;12.418;2023-11-19T02:33:10;96696.59;;;8.87;57.67
50977;BME280;36992;48.200;12.418;2023-11-19T02:35:36;96693.91;;;8.87;57.63
50977;BME280;36992;48.200;12.418;2023-11-19T02:38:02;96688.53;;;8.87;57.64
50977;BME280;36992;48.200;12.418;2023-11-19T02:40:32;96669.47;;;8.88;57.77
50977;BME280;36992;48.200;12.418;2023-11-19T02:42:58;96672.97;;;8.89;57.93
50977;BME280;36992;48.200;12.418;2023-11-19T02:45:27;96658.44;;;8.90;57.67
50977;BME280;36992;48.200;12.418;2023-11-19T02:47:56;96648.78;;;8.89;57.77
50977;BME280;36992;48.200;12.418;2023-11-19T02:50:23;96652.53;;;8.88;57.75
50977;BME280;36992;48.200;12.418;2023-11-19T02:52:52;96631.03;;;8.88;57.72
50977;BME280;36992;48.200;12.418;2023-11-19T02:55:19;96642.09;;;8.86;57.81
50977;BME280;36992;48.200;12.418;2023-11-19T02:57:46;96618.19;;;8.85;57.96
50977;BME280;36992;48.200;12.418;2023-11-19T03:00:14;96631.63;;;8.85;57.83
50977;BME280;36992;48.200;12.418;2023-11-19T03:02:42;96634.31;;;8.85;57.79
50977;BME280;36992;48.200;12.418;2023-11-19T03:05:12;96625.22;;;8.81;57.84
50977;BME280;36992;48.200;12.418;2023-11-19T03:07:40;96618.25;;;8.80;57.97
50977;BME280;36992;48.200;12.418;2023-11-19T03:10:08;96625.50;;;8.79;58.35
50977;BME280;36992;48.200;12.418;2023-11-19T03:12:37;96612.09;;;8.79;57.93
50977;BME280;36992;48.200;12.418;2023-11-19T03:15:05;96612.88;;;8.80;58.28
50977;BME280;36992;48.200;12.418;2023-11-19T03:17:31;96606.72;;;8.79;58.23
50977;BME280;36992;48.200;12.418;2023-11-19T03:20:00;96612.31;;;8.83;57.79
50977;BME280;36992;48.200;12.418;2023-11-19T03:22:27;96599.16;;;8.81;58.27
50977;BME280;36992;48.200;12.418;2023-11-19T03:24:53;96606.94;;;8.83;58.13
50977;BME280;36992;48.200;12.418;2023-11-19T03:27:20;96598.59;;;8.84;58.07
50977;BME280;36992;48.200;12.418;2023-11-19T03:29:46;96595.63;;;8.86;57.91
50977;BME280;36992;48.200;12.418;2023-11-19T03:32:13;96594.25;;;8.88;57.93
50977;BME280;36992;48.200;12.418;2023-11-19T03:34:40;96593.16;;;8.89;58.23
50977;BME280;36992;48.200;12.418;2023-11-19T03:37:08;96594.47;;;8.92;58.01
50977;BME280;36992;48.200;12.418;2023-11-19T03:39:34;96578.38;;;8.92;57.80
50977;BME280;36992;48.200;12.418;2023-11-19T03:42:01;96585.34;;;8.93;58.19
50977;BME280;36992;48.200;12.418;2023-11-19T03:44:28;96583.19;;;8.95;58.14
50977;BME280;36992;48.200;12.418;2023-11-19T03:46:54;96573.22;;;8.96;58.25
50977;BME280;36992;48.200;12.418;2023-11-19T03:49:21;96568.66;;;8.96;57.95
50977;BME280;36992;48.200;12.418;2023-11-19T03:51:49;96578.31;;;8.97;58.30
50977;BME280;36992;48.200;12.418;2023-11-19T03:54:17;96577.22;;;8.98;58.09
50977;BME280;36992;48.200;12.418;2023-11-19T03:56:43;96581.81;;;8.98;58.40
50977;BME280;36992;48.200;12.418;2023-11-19T03:59:10;96589.06;;;8.97;58.22
50977;BME280;36992;48.200;12.418;2023-11-19T04:01:36;96584.78;;;8.96;58.44
50977;BME280;36992;48.200;12.418;2023-11-19T04:04:03;96602.00;;;8.95;58.39
50977;BME280;36992;48.200;12.418;2023-11-19T04:06:30;96593.38;;;8.93;58.58
50977;BME280;36992;48.200;12.418;2023-11-19T04:08:56;96592.88;;;8.91;58.28
50977;BME280;36992;48.200;12.418;2023-11-19T04:11:24;96589.91;;;8.93;58.40
50977;BME280;36992;48.200;12.418;2023-11-19T04:13:51;96582.94;;;8.92;58.46
50977;BME280;36992;48.200;12.418;2023-11-19T04:16:17;96590.19;;;8.91;58.39
50977;BME280;36992;48.200;12.418;2023-11-19T04:18:44;96581.06;;;8.92;58.53
50977;BME280;36992;48.200;12.418;2023-11-19T04:21:10;96584.56;;;8.93;58.47
50977;BME280;36992;48.200;12.418;2023-11-19T04:23:37;96578.09;;;8.94;58.52
50977;BME280;36992;48.200;12.418;2023-11-19T04:26:04;96572.44;;;8.95;58.33
50977;BME280;36992;48.200;12.418;2023-11-19T04:28:33;96569.16;;;8.98;58.24
50977;BME280;36992;48.200;12.418;2023-11-19T04:30:59;96566.47;;;8.98;58.67
50977;BME280;36992;48.200;12.418;2023-11-19T04:33:26;96567.28;;;8.99;58.30
50977;BME280;36992;48.200;12.418;2023-11-19T04:35:52;96575.03;;;9.00;58.30
50977;BME280;36992;48.200;12.418;2023-11-19T04:38:19;96577.72;;;9.00;58.39
50977;BME280;36992;48.200;12.418;2023-11-19T04:40:45;96576.66;;;9.01;58.27
50977;BME280;36992;48.200;12.418;2023-11-19T04:43:12;96567.53;;;9.02;58.09
50977;BME280;36992;48.200;12.418;2023-11-19T04:45:40;96571.53;;;9.05;58.19
50977;BME280;36992;48.200;12.418;2023-11-19T04:48:06;96577.19;;;9.03;58.50
50977;BME280;36992;48.200;12.418;2023-11-19T04:50:34;96573.41;;;9.04;58.13
50977;BME280;36992;48.200;12.418;2023-11-19T04:53:00;96577.69;;;9.06;58.14
50977;BME280;36992;48.200;12.418;2023-11-19T04:55:28;96577.69;;;9.06;58.05
50977;BME280;36992;48.200;12.418;2023-11-19T04:57:55;96579.81;;;9.09;58.29
50977;BME280;36992;48.200;12.418;2023-11-19T05:00:21;96584.09;;;9.10;58.38
50977;BME280;36992;48.200;12.418;2023-11-19T05:02:49;96581.13;;;9.11;58.20
50977;BME280;36992;48.200;12.418;2023-11-19T05:05:16;96579.53;;;9.10;58.36
50977;BME280;36992;48.200;12.418;2023-11-19T05:07:43;96578.72;;;9.10;58.36
50977;BME280;36992;48.200;12.418;2023-11-19T05:10:09;96580.31;;;9.11;58.21
50977;BME280;36992;48.200;12.418;2023-11-19T05:12:36;96581.91;;;9.12;58.06
50977;BME280;36992;48.200;12.418;2023-11-19T05:15:03;96573.84;;;9.12;58.44
50977;BME280;36992;48.200;12.418;2023-11-19T05:17:30;96583.50;;;9.13;58.32
50977;BME280;36992;48.200;12.418;2023-11-19T05:19:57;96586.72;;;9.15;58.35
50977;BME280;36992;48.200;12.418;2023-11-19T05:22:24;96583.50;;;9.13;58.09
50977;BME280;36992;48.200;12.418;2023-11-19T05:24:51;96591.28;;;9.14;58.24
50977;BME280;36992;48.200;12.418;2023-11-19T05:27:18;96585.13;;;9.14;58.43
50977;BME280;36992;48.200;12.418;2023-11-19T05:29:45;96585.13;;;9.14;58.45
50977;BME280;36992;48.200;12.418;2023-11-19T05:32:11;96583.78;;;9.16;58.24
50977;BME280;36992;48.200;12.418;2023-11-19T05:34:38;96589.94;;;9.17;58.41
50977;BME280;36992;48.200;12.418;2023-11-19T05:37:06;96590.44;;;9.19;58.43
50977;BME280;36992;48.200;12.418;2023-11-19T05:39:32;96583.47;;;9.18;58.01
50977;BME280;36992;48.200;12.418;2023-11-19T05:41:59;96581.59;;;9.18;58.45
50977;BME280;36992;48.200;12.418;2023-11-19T05:44:26;96587.75;;;9.19;58.50
50977;BME280;36992;48.200;12.418;2023-11-19T05:46:53;96594.75;;;9.20;58.51
50977;BME280;36992;48.200;12.418;2023-11-19T05:49:19;96590.44;;;9.19;58.38
50977;BME280;36992;48.200;12.418;2023-11-19T05:51:46;96577.81;;;9.20;58.49
50977;BME280;36992;48.200;12.418;2023-11-19T05:54:13;96577.25;;;9.23;58.38
50977;BME280;36992;48.200;12.418;2023-11-19T05:56:41;96588.28;;;9.21;58.72
50977;BME280;36992;48.200;12.418;2023-11-19T05:59:07;96589.06;;;9.22;58.52
50977;BME280;36992;48.200;12.418;2023-11-19T06:01:40;96590.97;;;9.21;58.69
50977;BME280;36992;48.200;12.418;2023-11-19T06:04:07;96588.28;;;9.21;58.50
50977;BME280;36992;48.200;12.418;2023-11-19T06:06:33;96591.75;;;9.22;58.46
50977;BME280;36992;48.200;12.418;2023-11-19T06:09:00;96597.94;;;9.22;58.77
50977;BME280;36992;48.200;12.418;2023-11-19T06:11:31;96590.38;;;9.24;58.62
50977;BME280;36992;48.200;12.418;2023-11-19T06:13:57;96588.78;;;9.23;58.90
50977;BME280;36992;48.200;12.418;2023-11-19T06:16:24;96591.97;;;9.25;58.71
50977;BME280;36992;48.200;12.418;2023-11-19T06:18:50;96582.03;;;9.26;58.78
50977;BME280;36992;48.200;12.418;2023-11-19T06:21:18;96583.91;;;9.25;59.20
50977;BME280;36992;48.200;12.418;2023-11-19T06:23:45;96584.44;;;9.27;59.25
50977;BME280;36992;48.200;12.418;2023-11-19T06:26:11;96584.44;;;9.27;59.09
50977;BME280;36992;48.200;12.418;2023-11-19T06:28:40;96586.53;;;9.30;59.23
50977;BME280;36992;48.200;12.418;2023-11-19T06:31:07;96571.50;;;9.29;59.27
50977;BME280;36992;48.200;12.418;2023-11-19T06:33:33;96570.41;;;9.30;59.24
50977;BME280;36992;48.200;12.418;2023-11-19T06:36:00;96568.53;;;9.31;59.37
50977;BME280;36992;48.200;12.418;2023-11-19T06:38:26;96569.31;;;9.31;59.54
50977;BME280;36992;48.200;12.418;2023-11-19T06:40:53;96576.59;;;9.31;59.70
50977;BME280;36992;48.200;12.418;2023-11-19T06:43:19;96573.91;;;9.31;59.67
50977;BME280;36992;48.200;12.418;2023-11-19T06:45:48;96572.00;;;9.31;59.75
50977;BME280;36992;48.200;12.418;2023-11-19T06:48:14;96575.78;;;9.30;60.20
50977;BME280;36992;48.200;12.418;2023-11-19T06:50:41;96581.16;;;9.30;60.13
50977;BME280;36992;48.200;12.418;2023-11-19T06:53:07;96576.09;;;9.29;60.71
50977;BME280;36992;48.200;12.418;2023-11-19T06:55:35;96580.66;;;9.28;60.92
50977;BME280;36992;48.200;12.418;2023-11-19T06:58:02;96577.97;;;9.28;60.81
50977;BME280;36992;48.200;12.418;2023-11-19T07:00:28;96574.47;;;9.28;61.30
50977;BME280;36992;48.200;12.418;2023-11-19T07:02:59;96582.84;;;9.26;61.93
50977;BME280;36992;48.200;12.418;2023-11-19T07:05:25;96582.03;;;9.26;61.84
50977;BME280;36992;48.200;12.418;2023-11-19T07:07:52;96582.31;;;9.24;62.48
50977;BME280;36992;48.200;12.418;2023-11-19T07:10:19;96580.44;;;9.25;62.16
50977;BME280;36992;48.200;12.418;2023-11-19T07:12:46;96573.16;;;9.25;62.37
50977;BME280;36992;48.200;12.418;2023-11-19T07:15:15;96568.31;;;9.27;62.64
50977;BME280;36992;48.200;12.418;2023-11-19T07:17:42;96575.28;;;9.28;62.27
50977;BME280;36992;48.200;12.418;2023-11-19T07:20:12;96571.22;;;9.31;62.49
50977;BME280;36992;48.200;12.418;2023-11-19T07:22:42;96583.84;;;9.30;63.02
50977;BME280;36992;48.200;12.418;2023-11-19T07:25:11;96578.47;;;9.30;63.43
50977;BME280;36992;48.200;12.418;2023-11-19T07:27:37;96586.00;;;9.34;63.53
50977;BME280;36992;48.200;12.418;2023-11-19T07:30:05;96586.50;;;9.36;63.50
50977;BME280;36992;48.200;12.418;2023-11-19T07:32:32;96594.28;;;9.37;63.64
50977;BME280;36992;48.200;12.418;2023-11-19T07:34:59;96599.88;;;9.41;63.75
50977;BME280;36992;48.200;12.418;2023-11-19T07:37:27;96599.28;;;9.44;63.63
50977;BME280;36992;48.200;12.418;2023-11-19T07:39:53;96607.06;;;9.45;64.32
50977;BME280;36992;48.200;12.418;2023-11-19T07:42:20;96597.63;;;9.48;64.79
50977;BME280;36992;48.200;12.418;2023-11-19T07:44:46;96600.53;;;9.52;64.79
50977;BME280;36992;48.200;12.418;2023-11-19T07:47:13;96598.09;;;9.55;64.86
50977;BME280;36992;48.200;12.418;2023-11-19T07:49:39;96594.03;;;9.58;64.83
50977;BME280;36992;48.200;12.418;2023-11-19T07:52:06;96586.97;;;9.62;65.07
50977;BME280;36992;48.200;12.418;2023-11-19T07:54:34;96594.19;;;9.67;65.03
50977;BME280;36992;48.200;12.418;2023-11-19T07:57:00;96596.00;;;9.71;65.13
50977;BME280;36992;48.200;12.418;2023-11-19T07:59:27;96593.53;;;9.75;65.37
50977;BME280;36992;48.200;12.418;2023-11-19T08:01:53;96600.22;;;9.78;65.99
50977;BME280;36992;48.200;12.418;2023-11-19T08:04:20;96603.66;;;9.83;65.71
50977;BME280;36992;48.200;12.418;2023-11-19T08:06:46;96586.41;;;9.84;65.93
50977;BME280;36992;48.200;12.418;2023-11-19T08:09:13;96599.81;;;9.90;66.34
50977;BME280;36992;48.200;12.418;2023-11-19T08:11:41;96589.75;;;9.95;65.64
50977;BME280;36992;48.200;12.418;2023-11-19T08:14:08;96583.81;;;9.98;65.86
50977;BME280;36992;48.200;12.418;2023-11-19T08:16:34;96578.66;;;10.02;65.55
50977;BME280;36992;48.200;12.418;2023-11-19T08:19:01;96579.97;;;10.05;66.06
50977;BME280;36992;48.200;12.418;2023-11-19T08:21:28;96576.38;;;10.09;65.51
50977;BME280;36992;48.200;12.418;2023-11-19T08:23:54;96590.63;;;10.10;66.06
50977;BME280;36992;48.200;12.418;2023-11-19T08:26:21;96596.75;;;10.16;65.87
50977;BME280;36992;48.200;12.418;2023-11-19T08:28:49;96596.97;;;10.19;65.82
50977;BME280;36992;48.200;12.418;2023-11-19T08:31:17;96605.75;;;10.25;65.90
50977;BME280;36992;48.200;12.418;2023-11-19T08:33:43;96589.31;;;10.26;65.89
50977;BME280;36992;48.200;12.418;2023-11-19T08:36:15;96597.03;;;10.33;65.33
50977;BME280;36992;48.200;12.418;2023-11-19T08:38:42;96592.44;;;10.34;65.95
50977;BME280;36992;48.200;12.418;2023-11-19T08:41:08;96587.25;;;10.37;66.19
50977;BME280;36992;48.200;12.418;2023-11-19T08:43:35;96582.88;;;10.42;65.85
50977;BME280;36992;48.200;12.418;2023-11-19T08:46:03;96579.34;;;10.46;65.92
50977;BME280;36992;48.200;12.418;2023-11-19T08:48:30;96570.16;;;10.47;66.55
50977;BME280;36992;48.200;12.418;2023-11-19T08:50:56;96571.19;;;10.51;66.67
50977;BME280;36992;48.200;12.418;2023-11-19T08:53:23;96564.41;;;10.54;66.57
50977;BME280;36992;48.200;12.418;2023-11-19T08:55:49;96554.66;;;10.58;66.06
50977;BME280;36992;48.200;12.418;2023-11-19T08:58:16;96566.72;;;10.61;66.19
50977;BME280;36992;48.200;12.418;2023-11-19T09:00:43;96562.03;;;10.66;65.83
50977;BME280;36992;48.200;12.418;2023-11-19T09:03:11;96560.66;;;10.69;66.29
50977;BME280;36992;48.200;12.418;2023-11-19T09:05:37;96553.06;;;10.71;66.37
50977;BME280;36992;48.200;12.418;2023-11-19T09:08:04;96546.28;;;10.74;66.90
50977;BME280;36992;48.200;12.418;2023-11-19T09:10:31;96562.34;;;10.79;67.31
50977;BME280;36992;48.200;12.418;2023-11-19T09:12:58;96560.69;;;10.83;67.22
50977;BME280;36992;48.200;12.418;2023-11-19T09:15:24;96563.25;;;10.88;67.70
50977;BME280;36992;48.200;12.418;2023-11-19T09:17:51;96566.69;;;10.94;68.30
50977;BME280;36992;48.200;12.418;2023-11-19T09:20:19;96558.69;;;11.03;68.68
50977;BME280;36992;48.200;12.418;2023-11-19T09:22:45;96565.88;;;11.07;69.95
50977;BME280;36992;48.200;12.418;2023-11-19T09:25:12;96564.31;;;11.20;70.21
50977;BME280;36992;48.200;12.418;2023-11-19T09:27:42;96570.28;;;11.31;69.52
50977;BME280;36992;48.200;12.418;2023-11-19T09:30:09;96563.88;;;11.41;70.24
50977;BME280;36992;48.200;12.418;2023-11-19T09:32:36;96567.69;;;11.54;70.23
50977;BME280;36992;48.200;12.418;2023-11-19T09:35:03;96560.94;;;11.66;70.08
50977;BME280;36992;48.200;12.418;2023-11-19T09:37:31;96566.63;;;11.78;70.66
50977;BME280;36992;48.200;12.418;2023-11-19T09:39:58;96576.09;;;11.90;70.93
50977;BME280;36992;48.200;12.418;2023-11-19T09:42:24;96567.16;;;12.03;71.13
50977;BME280;36992;48.200;12.418;2023-11-19T09:44:53;96572.53;;;12.17;71.10
50977;BME280;36992;48.200;12.418;2023-11-19T09:47:21;96570.09;;;12.30;70.40
50977;BME280;36992;48.200;12.418;2023-11-19T09:49:49;96573.84;;;12.43;69.92
50977;BME280;36992;48.200;12.418;2023-11-19T09:52:15;96564.69;;;12.52;69.26
50977;BME280;36992;48.200;12.418;2023-11-19T09:54:43;96556.31;;;12.63;69.33
50977;BME280;36992;48.200;12.418;2023-11-19T09:57:11;96553.66;;;12.72;69.69
50977;BME280;36992;48.200;12.418;2023-11-19T09:59:42;96561.81;;;12.80;69.28
50977;BME280;36992;48.200;12.418;2023-11-19T10:02:10;96553.56;;;12.86;69.17
50977;BME280;36992;48.200;12.418;2023-11-19T10:04:38;96561.91;;;12.98;68.24
50977;BME280;36992;48.200;12.418;2023-11-19T10:07:06;96556.06;;;13.05;68.38
50977;BME280;36992;48.200;12.418;2023-11-19T10:09:33;96555.28;;;13.13;67.26
50977;BME280;36992;48.200;12.418;2023-11-19T10:12:01;96556.44;;;13.21;67.00
50977;BME280;36992;48.200;12.418;2023-11-19T10:14:35;96561.88;;;13.30;67.06
50977;BME280;36992;48.200;12.418;2023-11-19T10:17:09;96553.94;;;13.33;67.35
50977;BME280;36992;48.200;12.418;2023-11-19T10:19:41;96548.34;;;13.39;67.80
50977;BME280;36992;48.200;12.418;2023-11-19T10:22:07;96541.22;;;13.43;67.65
50977;BME280;36992;48.200;12.418;2023-11-19T10:24:34;96539.03;;;13.54;66.52
50977;BME280;36992;48.200;12.418;2023-11-19T10:27:06;96540.16;;;13.61;66.54
50977;BME280;36992;48.200;12.418;2023-11-19T10:30:06;96550.19;;;13.70;66.65
50977;BME280;36992;48.200;12.418;2023-11-19T10:32:40;96552.28;;;13.73;66.64
50977;BME280;36992;48.200;12.418;2023-11-19T10:35:15;96551.50;;;13.81;66.18
50977;BME280;36992;48.200;12.418;2023-11-19T10:41:04;96556.13;;;13.89;65.90
50977;BME280;36992;48.200;12.418;2023-11-19T10:43:42;96540.97;;;13.97;65.40
50977;BME280;36992;48.200;12.418;2023-11-19T10:46:10;96531.59;;;13.95;66.02
50977;BME280;36992;48.200;12.418;2023-11-19T10:48:38;96534.94;;;14.00;65.44
50977;BME280;36992;48.200;12.418;2023-11-19T10:51:05;96520.44;;;14.05;65.66
50977;BME280;36992;48.200;12.418;2023-11-19T10:54:01;96510.06;;;14.07;65.71
50977;BME280;36992;48.200;12.418;2023-11-19T10:56:31;96511.03;;;14.11;65.38
50977;BME280;36992;48.200;12.418;2023-11-19T10:59:02;96510.56;;;14.18;64.86
50977;BME280;36992;48.200;12.418;2023-11-19T11:01:35;96518.84;;;14.22;64.29
50977;BME280;36992;48.200;12.418;2023-11-19T11:04:07;96521.56;;;14.22;65.39
50977;BME280;36992;48.200;12.418;2023-11-19T11:06:39;96529.03;;;14.25;64.99
50977;BME280;36992;48.200;12.418;2023-11-19T11:09:07;96518.69;;;14.27;65.23
50977;BME280;36992;48.200;12.418;2023-11-19T11:11:37;96509.91;;;14.30;64.96
50977;BME280;36992;48.200;12.418;2023-11-19T11:14:07;96519.28;;;14.41;65.06
50977;BME280;36992;48.200;12.418;2023-11-19T11:16:34;96518.16;;;14.42;65.10
50977;BME280;36992;48.200;12.418;2023-11-19T11:19:04;96527.25;;;14.47;64.26
50977;BME280;36992;48.200;12.418;2023-11-19T11:21:31;96514.16;;;14.49;63.96
50977;BME280;36992;48.200;12.418;2023-11-19T11:24:13;96523.56;;;14.51;64.31
50977;BME280;36992;48.200;12.418;2023-11-19T11:27:02;96525.81;;;14.58;63.44
50977;BME280;36992;48.200;12.418;2023-11-19T11:29:41;96517.47;;;14.63;63.65
50977;BME280;36992;48.200;12.418;2023-11-19T11:32:21;96514.44;;;14.65;63.78
50977;BME280;36992;48.200;12.418;2023-11-19T11:35:01;96509.16;;;14.68;63.40
50977;BME280;36992;48.200;12.418;2023-11-19T11:37:37;96504.69;;;14.73;63.66
50977;BME280;36992;48.200;12.418;2023-11-19T11:40:06;96508.53;;;14.72;63.58
50977;BME280;36992;48.200;12.418;2023-11-19T11:42:35;96502.97;;;14.77;63.50
50977;BME280;36992;48.200;12.418;2023-11-19T11:45:05;96504.38;;;14.83;63.41
50977;BME280;36992;48.200;12.418;2023-11-19T11:48:04;96507.03;;;14.92;62.79
50977;BME280;36992;48.200;12.418;2023-11-19T11:50:31;96511.69;;;14.91;63.58
50977;BME280;36992;48.200;12.418;2023-11-19T11:53:16;96498.88;;;15.01;63.18
50977;BME280;36992;48.200;12.418;2023-11-19T11:56:07;96508.25;;;15.03;62.68
50977;BME280;36992;48.200;12.418;2023-11-19T11:58:35;96501.13;;;14.99;62.31
50977;BME280;36992;48.200;12.418;2023-11-19T12:01:04;96504.09;;;15.06;62.89
50977;BME280;36992;48.200;12.418;2023-11-19T12:03:34;96509.22;;;15.07;62.35
50977;BME280;36992;48.200;12.418;2023-11-19T12:06:01;96517.03;;;15.09;62.14
50977;BME280;36992;48.200;12.418;2023-11-19T12:08:29;96504.38;;;15.13;61.73
50977;BME280;36992;48.200;12.418;2023-11-19T12:10:57;96504.53;;;15.17;61.86
50977;BME280;36992;48.200;12.418;2023-11-19T12:13:26;96508.50;;;15.19;61.45
50977;BME280;36992;48.200;12.418;2023-11-19T12:16:10;96512.16;;;15.23;61.78
50977;BME280;36992;48.200;12.418;2023-11-19T12:18:39;96511.34;;;15.23;61.28
50977;BME280;36992;48.200;12.418;2023-11-19T12:21:09;96502.75;;;15.21;61.56
50977;BME280;36992;48.200;12.418;2023-11-19T12:23:44;96503.72;;;15.25;61.29
50977;BME280;36992;48.200;12.418;2023-11-19T12:26:21;96503.19;;;15.32;61.53
50977;BME280;36992;48.200;12.418;2023-11-19T12:28:57;96500.00;;;15.30;61.13
50977;BME280;36992;48.200;12.418;2023-11-19T12:31:25;96504.31;;;15.31;61.20
50977;BME280;36992;48.200;12.418;2023-11-19T12:33:52;96498.88;;;15.31;60.63
50977;BME280;36992;48.200;12.418;2023-11-19T12:36:22;96483.84;;;15.33;60.94
50977;BME280;36992;48.200;12.418;2023-11-19T12:38:54;96489.28;;;15.33;61.06
50977;BME280;36992;48.200;12.418;2023-11-19T12:41:53;96485.13;;;15.36;60.58
50977;BME280;36992;48.200;12.418;2023-11-19T12:44:25;96490.09;;;15.34;60.69
50977;BME280;36992;48.200;12.418;2023-11-19T12:47:04;96496.44;;;15.38;60.81
50977;BME280;36992;48.200;12.418;2023-11-19T12:49:40;96488.28;;;15.38;60.49
50977;BME280;36992;48.200;12.418;2023-11-19T12:52:15;96487.84;;;15.36;60.66
50977;BME280;36992;48.200;12.418;2023-11-19T12:54:57;96481.75;;;15.39;60.60
50977;BME280;36992;48.200;12.418;2023-11-19T12:57:42;96482.34;;;15.45;60.47
50977;BME280;36992;48.200;12.418;2023-11-19T13:00:24;96475.66;;;15.42;60.59
50977;BME280;36992;48.200;12.418;2023-11-19T13:02:56;96464.34;;;15.40;60.62
50977;BME280;36992;48.200;12.418;2023-11-19T13:05:46;96470.38;;;15.46;60.32
50977;BME280;36992;48.200;12.418;2023-11-19T13:08:13;96465.13;;;15.41;60.62